createdAt,value
2018-12-16T08:40:03.200Z,35.73
2018-12-16T08:42:30.821Z,41.67
2018-12-16T08:44:59.200Z,41.40
2018-12-16T08:47:32.936Z,41.03
2018-12-16T08:49:56.373Z,43.03
2018-12-16T08:52:23.886Z,44.87
2018-12-16T08:54:51.362Z,47.63
2018-12-16T08:57:18.867Z,39.80
2018-12-16T08:59:46.365Z,44.03
2018-12-16T09:02:13.860Z,42.90
2018-12-16T09:04:41.330Z,43.60
2018-12-16T09:07:08.853Z,41.07
2018-12-16T09:09:36.372Z,38.47
2018-12-16T09:12:03.930Z,45.77
2018-12-16T09:14:31.390Z,44.23
2018-12-16T09:16:58.872Z,48.83
2018-12-16T09:19:26.347Z,41.83
2018-12-16T09:21:53.836Z,40.77
2018-12-16T09:24:21.306Z,45.27
2018-12-16T09:26:48.805Z,45.33
2018-12-16T09:29:16.278Z,46.07
2018-12-16T09:31:43.779Z,45.87
2018-12-16T09:34:11.270Z,43.93
2018-12-16T09:36:38.778Z,45.73
2018-12-16T09:39:06.513Z,46.73
2018-12-16T09:41:34.011Z,45.77
2018-12-16T09:44:01.492Z,45.97
2018-12-16T09:46:30.022Z,48.43
2018-12-16T09:48:57.671Z,49.93
2018-12-16T09:51:25.175Z,45.10
2018-12-16T09:53:52.635Z,41.60
2018-12-16T09:56:20.213Z,45.30
2018-12-16T09:58:47.670Z,43.23
2018-12-16T10:01:15.165Z,40.03
2018-12-16T10:03:42.645Z,46.50
2018-12-16T10:06:10.140Z,46.70
2018-12-16T10:08:37.682Z,48.10
2018-12-16T10:11:05.282Z,41.70
2018-12-16T10:13:32.738Z,43.40
2018-12-16T10:16:00.212Z,47.17
2018-12-16T10:18:27.666Z,46.43
2018-12-16T10:20:55.287Z,46.27
2018-12-16T10:23:22.827Z,46.03
2018-12-16T10:25:50.319Z,49.73
2018-12-16T10:28:17.804Z,46.33
2018-12-16T10:30:45.331Z,47.57
2018-12-16T10:33:12.788Z,45.40
2018-12-16T10:35:40.265Z,51.40
2018-12-16T10:38:07.748Z,51.93
2018-12-16T10:40:35.230Z,45.07
2018-12-16T10:43:02.698Z,46.43
2018-12-16T10:45:30.169Z,49.77
2018-12-16T10:47:57.702Z,46.60
2018-12-16T10:50:25.267Z,47.20
2018-12-16T10:52:53.989Z,43.33
2018-12-16T10:55:22.970Z,44.67
2018-12-16T10:57:51.412Z,46.33
2018-12-16T11:00:24.611Z,44.33
2018-12-16T11:02:52.077Z,44.67
2018-12-16T11:05:19.611Z,46.17
2018-12-16T11:07:47.106Z,47.50
2018-12-16T11:10:14.587Z,48.40
2018-12-16T11:12:42.440Z,47.60
2018-12-16T11:15:09.953Z,43.17
2018-12-16T11:17:37.445Z,46.23
2018-12-16T11:20:05.611Z,47.33
2018-12-16T11:22:33.136Z,52.97
2018-12-16T11:25:05.680Z,47.43
2018-12-16T11:27:30.120Z,48.93
2018-12-16T11:29:57.602Z,44.67
2018-12-16T11:32:25.090Z,45.10
2018-12-16T11:34:52.559Z,47.80
2018-12-16T11:37:20.100Z,51.80
2018-12-16T11:39:47.590Z,63.00
2018-12-16T11:42:15.097Z,51.47
2018-12-16T11:44:42.576Z,47.27
2018-12-16T11:47:10.760Z,51.80
2018-12-16T11:49:38.319Z,52.33
2018-12-16T11:52:05.809Z,49.03
2018-12-16T11:54:34.649Z,45.80
2018-12-16T11:57:02.174Z,47.87
2018-12-16T11:59:29.679Z,53.33
2018-12-16T12:01:57.171Z,49.70
2018-12-16T12:04:24.688Z,46.97
2018-12-16T12:06:52.244Z,50.67
2018-12-16T12:09:20.308Z,49.10
2018-12-16T12:11:48.010Z,57.50
2018-12-16T12:14:16.179Z,51.87
2018-12-16T12:16:44.535Z,56.57
2018-12-16T12:19:12.121Z,49.83
2018-12-16T12:21:39.631Z,50.20
2018-12-16T12:24:07.122Z,49.57
2018-12-16T12:26:34.594Z,52.00
2018-12-16T12:29:02.662Z,54.23
2018-12-16T12:31:30.149Z,56.13
2018-12-16T12:33:57.699Z,55.53
2018-12-16T12:36:25.309Z,51.40
2018-12-16T12:38:54.063Z,51.70
2018-12-16T12:41:21.574Z,61.33
2018-12-16T12:43:49.352Z,53.00
2018-12-16T12:46:16.917Z,50.90
2018-12-16T12:48:44.475Z,59.27
2018-12-16T12:51:12.128Z,60.40
2018-12-16T12:53:41.322Z,53.93
2018-12-16T12:56:08.965Z,49.60
2018-12-16T12:58:36.443Z,51.27
2018-12-16T13:01:03.950Z,54.90
2018-12-16T13:03:31.466Z,55.10
2018-12-16T13:05:58.929Z,53.77
2018-12-16T13:08:26.409Z,53.60
2018-12-16T13:10:53.888Z,51.27
2018-12-16T13:13:21.380Z,51.30
2018-12-16T13:15:48.826Z,54.77
2018-12-16T13:18:16.345Z,54.93
2018-12-16T13:20:43.843Z,48.83
2018-12-16T13:23:11.324Z,56.57
2018-12-16T13:25:50.794Z,60.20
2018-12-16T13:28:18.354Z,52.60
2018-12-16T13:30:45.834Z,51.87
2018-12-16T13:33:13.315Z,54.50
2018-12-16T13:35:41.039Z,48.03
2018-12-16T13:38:08.581Z,51.00
2018-12-16T13:40:36.049Z,56.10
2018-12-16T13:45:40.806Z,53.80
2018-12-16T13:48:08.291Z,53.10
2018-12-16T13:50:35.818Z,55.70
2018-12-16T13:53:03.351Z,55.07
2018-12-16T13:55:30.845Z,57.10
2018-12-16T13:57:58.386Z,57.03
2018-12-16T14:00:25.896Z,55.97
2018-12-16T14:02:53.379Z,50.37
2018-12-16T14:05:20.879Z,53.57
2018-12-16T14:07:48.395Z,55.50
2018-12-16T14:10:15.952Z,57.93
2018-12-16T14:27:23.032Z,47.30
2018-12-16T14:29:53.660Z,51.27
2018-12-16T14:32:21.141Z,45.93
2018-12-16T14:34:48.637Z,53.63
2018-12-16T14:37:16.112Z,46.90
2018-12-16T14:39:43.591Z,46.43
2018-12-16T14:42:11.172Z,51.60
2018-12-16T14:44:38.761Z,53.87
2018-12-16T14:47:06.313Z,58.40
2018-12-16T14:49:33.823Z,49.27
2018-12-16T14:52:01.379Z,54.33
2018-12-16T14:54:29.005Z,51.63
2018-12-16T14:56:56.560Z,49.43
2018-12-16T14:59:25.077Z,51.20
2018-12-16T15:01:52.647Z,57.03
2018-12-16T15:04:20.207Z,50.40
2018-12-16T15:06:47.717Z,51.17
2018-12-16T15:09:15.200Z,52.50
2018-12-16T15:11:42.683Z,52.47
2018-12-16T15:14:10.159Z,52.53
2018-12-16T15:16:37.660Z,48.83
2018-12-16T15:19:05.134Z,50.77
2018-12-16T15:21:32.641Z,57.57
2018-12-16T15:24:00.185Z,50.60
2018-12-16T15:26:27.776Z,54.10
2018-12-16T15:28:55.325Z,52.23
2018-12-16T15:31:22.832Z,54.67
2018-12-16T15:33:50.302Z,52.60
2018-12-16T15:36:17.918Z,58.63
2018-12-16T15:38:45.408Z,58.80
2018-12-16T15:41:12.902Z,47.93
2018-12-16T15:43:40.387Z,56.37
2018-12-16T15:46:07.876Z,58.13
2018-12-16T15:48:35.355Z,64.27
2018-12-16T15:51:02.864Z,61.40
2018-12-16T15:53:31.147Z,63.93
2018-12-16T15:55:58.649Z,66.03
2018-12-16T15:58:26.109Z,69.23
2018-12-16T16:00:53.588Z,57.50
2018-12-16T16:03:21.081Z,67.83
2018-12-16T16:05:48.538Z,62.33
2018-12-16T16:08:16.542Z,67.53
2018-12-16T16:10:44.246Z,60.60
2018-12-16T16:13:11.774Z,58.97
2018-12-16T16:15:39.254Z,63.73
2018-12-16T16:18:06.770Z,68.07
2018-12-16T16:20:34.282Z,69.53
2018-12-16T16:23:01.774Z,61.93
2018-12-16T16:25:29.234Z,74.23
2018-12-16T16:27:56.710Z,76.43
2018-12-16T16:30:24.195Z,64.33
2018-12-16T16:32:52.529Z,68.03
2018-12-16T16:35:20.186Z,62.30
2018-12-16T16:37:47.742Z,71.67
2018-12-16T16:40:15.609Z,69.50
2018-12-16T16:42:43.783Z,70.27
2018-12-16T16:45:11.284Z,71.80
2018-12-16T16:47:38.787Z,88.35
2018-12-16T16:50:06.384Z,82.70
2018-12-16T16:52:33.908Z,96.60
2018-12-16T16:55:01.370Z,104.95
2018-12-16T16:57:28.869Z,81.27
2018-12-16T16:59:56.349Z,78.57
2018-12-16T17:02:23.836Z,72.47
2018-12-16T17:04:51.313Z,72.83
2018-12-16T17:07:18.805Z,80.42
2018-12-16T17:09:46.281Z,101.27
2018-12-16T17:12:13.881Z,103.22
2018-12-16T17:14:41.404Z,84.40
2018-12-16T17:17:08.872Z,75.97
2018-12-16T17:19:36.381Z,78.60
2018-12-16T17:24:33.385Z,76.07
2018-12-16T17:27:00.854Z,85.33
2018-12-16T17:29:28.352Z,77.30
2018-12-16T17:31:55.817Z,89.13
2018-12-16T17:34:23.357Z,77.87
2018-12-16T17:36:50.867Z,79.73
2018-12-16T17:39:18.348Z,82.30
2018-12-16T17:41:45.839Z,89.53
2018-12-16T17:44:13.379Z,87.23
2018-12-16T17:46:40.841Z,84.60
2018-12-16T17:49:08.433Z,87.83
2018-12-16T17:51:35.907Z,90.37
2018-12-16T17:54:03.406Z,93.30
2018-12-16T17:56:36.849Z,95.17
2018-12-16T17:59:00.369Z,87.03
2018-12-16T18:01:27.844Z,81.50
2018-12-16T18:03:55.338Z,80.50
2018-12-16T18:06:22.822Z,89.13
2018-12-16T18:08:50.309Z,94.07
2018-12-16T18:11:17.771Z,91.47
2018-12-16T18:13:45.228Z,90.93
2018-12-16T18:16:12.725Z,107.20
2018-12-16T18:18:40.198Z,98.67
2018-12-16T18:21:07.680Z,96.47
2018-12-16T18:23:35.163Z,95.70
2018-12-16T18:26:02.655Z,91.70
2018-12-16T18:28:30.138Z,89.73
2018-12-16T18:30:57.641Z,92.00
2018-12-16T18:33:25.366Z,85.33
2018-12-16T18:35:52.863Z,82.60
2018-12-16T18:38:20.337Z,86.30
2018-12-16T18:40:47.823Z,81.60
2018-12-16T18:43:16.040Z,85.50
2018-12-16T18:45:43.536Z,93.97
2018-12-16T18:48:11.003Z,85.50
2018-12-16T18:50:38.498Z,92.63
2018-12-16T18:53:06.025Z,83.93
2018-12-16T18:55:33.511Z,78.73
2018-12-16T18:58:00.998Z,89.43
2018-12-16T19:00:28.510Z,77.07
2018-12-16T19:02:55.994Z,81.63
2018-12-16T19:05:23.496Z,86.30
2018-12-16T19:07:51.000Z,74.33
2018-12-16T19:10:18.471Z,70.40
2018-12-16T19:12:46.154Z,78.63
2018-12-16T19:15:14.388Z,81.10
2018-12-16T19:17:41.986Z,76.73
2018-12-16T19:20:09.459Z,74.03
2018-12-16T19:22:36.958Z,76.40
2018-12-16T19:25:04.603Z,82.00
2018-12-16T19:27:32.093Z,78.07
2018-12-16T19:29:59.617Z,74.47
2018-12-16T19:32:27.122Z,75.77
2018-12-16T19:34:54.599Z,64.77
2018-12-16T19:37:22.094Z,76.23
2018-12-16T19:39:49.558Z,74.70
2018-12-16T19:42:17.038Z,87.77
2018-12-16T19:44:44.523Z,102.17
2018-12-16T19:47:12.028Z,89.70
2018-12-16T19:49:39.518Z,80.90
2018-12-16T19:52:07.019Z,79.00
2018-12-16T19:54:34.979Z,79.60
2018-12-16T19:57:05.173Z,84.97
2018-12-16T19:59:32.014Z,78.93
2018-12-16T20:01:59.504Z,86.20
2018-12-16T20:04:28.945Z,73.33
2018-12-16T20:06:56.466Z,82.60
2018-12-16T20:09:23.942Z,73.93
2018-12-16T20:11:51.443Z,81.10
2018-12-16T20:14:18.914Z,92.87
2018-12-16T20:16:46.394Z,83.47
2018-12-16T20:19:13.903Z,80.53
2018-12-16T20:21:41.482Z,80.40
2018-12-16T20:24:08.952Z,86.28
2018-12-16T20:26:36.449Z,87.07
2018-12-16T20:29:03.923Z,73.33
2018-12-16T20:31:31.398Z,80.33
2018-12-16T20:33:59.224Z,74.80
2018-12-16T20:36:26.727Z,85.37
2018-12-16T20:38:54.264Z,74.33
2018-12-16T20:41:21.754Z,80.50
2018-12-16T20:43:49.235Z,76.40
2018-12-16T20:46:16.737Z,84.50
2018-12-16T20:48:44.216Z,93.03
2018-12-16T20:51:11.696Z,91.00
2018-12-16T20:53:39.178Z,89.23
2018-12-16T20:56:06.657Z,86.87
2018-12-16T20:58:34.156Z,82.80
2018-12-16T21:01:01.633Z,92.03
2018-12-16T21:03:29.126Z,84.17
2018-12-16T21:05:56.599Z,97.57
2018-12-16T21:08:24.083Z,93.03
2018-12-16T21:10:51.564Z,95.67
2018-12-16T21:13:24.777Z,92.67
2018-12-16T21:15:57.968Z,89.33
2018-12-16T21:18:25.621Z,85.80
2018-12-16T21:20:53.085Z,97.97
2018-12-16T21:23:20.569Z,103.67
2018-12-16T21:25:48.053Z,96.37
2018-12-16T21:28:15.543Z,91.20
2018-12-16T21:30:43.043Z,98.30
2018-12-16T21:33:10.546Z,86.77
2018-12-16T21:35:38.007Z,93.20
2018-12-16T21:38:05.500Z,91.53
2018-12-16T21:40:32.974Z,88.17
2018-12-16T21:43:00.677Z,95.57
2018-12-16T21:45:28.781Z,87.67
2018-12-16T21:47:56.295Z,108.40
2018-12-16T21:50:23.771Z,108.73
2018-12-16T21:52:51.284Z,105.30
2018-12-16T21:55:18.768Z,98.70
2018-12-16T21:57:46.266Z,102.63
2018-12-16T22:00:13.822Z,116.50
2018-12-16T22:02:41.337Z,107.07
2018-12-16T22:05:09.175Z,89.23
2018-12-16T22:07:36.644Z,86.80
2018-12-16T22:10:04.925Z,84.37
2018-12-16T22:12:32.630Z,93.20
2018-12-16T22:15:00.127Z,88.30
2018-12-16T22:17:27.608Z,94.37
2018-12-16T22:19:55.108Z,100.03
2018-12-16T22:22:22.594Z,104.80
2018-12-16T22:24:50.188Z,96.77
2018-12-16T22:27:18.279Z,106.20
2018-12-16T22:29:45.762Z,107.60
2018-12-16T22:32:13.236Z,101.00
2018-12-16T22:34:40.934Z,98.00
2018-12-16T22:37:08.770Z,102.23
2018-12-16T22:39:36.244Z,92.67
2018-12-16T22:42:03.758Z,92.90
2018-12-16T22:44:31.362Z,95.43
2018-12-16T22:46:58.861Z,100.57
2018-12-16T22:49:26.348Z,96.23
2018-12-16T22:51:53.940Z,96.67
2018-12-16T22:54:21.492Z,95.90
2018-12-16T22:56:49.029Z,96.20
2018-12-16T22:59:16.528Z,94.47
2018-12-16T23:01:44.018Z,87.60
2018-12-16T23:04:11.498Z,95.27
2018-12-16T23:06:39.024Z,109.43
2018-12-16T23:09:07.048Z,89.30
2018-12-16T23:11:34.628Z,102.57
2018-12-16T23:14:02.168Z,88.40
2018-12-16T23:16:29.745Z,100.10
2018-12-16T23:18:57.435Z,98.27
2018-12-16T23:21:24.935Z,87.30
2018-12-16T23:23:52.416Z,82.67
2018-12-16T23:26:19.907Z,78.20
2018-12-16T23:28:47.799Z,99.93
2018-12-16T23:31:15.285Z,99.43
2018-12-16T23:33:42.760Z,108.00
2018-12-16T23:36:10.239Z,96.93
2018-12-16T23:38:38.089Z,97.37
2018-12-16T23:41:05.642Z,89.43
2018-12-16T23:43:33.200Z,97.13
2018-12-16T23:46:00.687Z,92.00
2018-12-16T23:48:28.160Z,96.30
2018-12-16T23:50:55.678Z,90.07
2018-12-16T23:53:23.342Z,87.37
2018-12-16T23:55:51.035Z,96.00
2018-12-16T23:58:19.118Z,87.00
